createdAt,value
2017-09-08T00:02:11.770Z,14.80
2017-09-08T00:04:37.732Z,14.80
2017-09-08T00:07:03.748Z,14.80
2017-09-08T00:09:29.735Z,14.80
2017-09-08T00:11:55.686Z,14.90
2017-09-08T00:14:21.666Z,14.90
2017-09-08T00:16:47.609Z,14.80
2017-09-08T00:19:13.558Z,14.80
2017-09-08T00:21:39.529Z,14.70
2017-09-08T00:24:05.505Z,14.70
2017-09-08T00:26:31.517Z,14.80
2017-09-08T00:28:57.483Z,14.90
2017-09-08T00:31:24.179Z,14.90
2017-09-08T00:33:50.893Z,14.90
2017-09-08T00:36:16.874Z,14.90
2017-09-08T00:38:42.854Z,14.90
2017-09-08T00:41:09.210Z,14.90
2017-09-08T00:43:35.174Z,14.90
2017-09-08T00:46:01.876Z,15.00
2017-09-08T00:48:27.873Z,15.00
2017-09-08T00:50:53.829Z,15.00
2017-09-08T00:53:19.786Z,14.90
2017-09-08T00:55:45.793Z,15.00
2017-09-08T00:58:11.746Z,15.00
2017-09-08T01:00:37.695Z,14.90
2017-09-08T01:03:03.701Z,14.90
2017-09-08T01:05:29.705Z,14.90
2017-09-08T01:07:55.657Z,14.90
2017-09-08T01:10:21.594Z,14.90
2017-09-08T01:12:47.591Z,14.80
2017-09-08T01:15:13.571Z,14.80
2017-09-08T01:17:39.506Z,14.70
2017-09-08T01:20:06.238Z,14.60
2017-09-08T01:22:32.978Z,14.50
2017-09-08T01:24:58.983Z,14.50
2017-09-08T01:27:24.968Z,14.50
2017-09-08T01:29:51.658Z,14.40
2017-09-08T01:32:17.646Z,14.40
2017-09-08T01:34:43.589Z,14.30
2017-09-08T01:37:09.534Z,14.10
2017-09-08T01:39:36.306Z,14.10
2017-09-08T01:42:02.277Z,14.10
2017-09-08T01:44:28.279Z,14.20
2017-09-08T01:46:54.263Z,14.20
2017-09-08T01:49:20.239Z,14.10
2017-09-08T01:51:46.953Z,14.00
2017-09-08T01:54:12.903Z,14.00
2017-09-08T01:56:38.922Z,14.00
2017-09-08T01:59:04.870Z,14.00
2017-09-08T02:01:30.869Z,13.90
2017-09-08T02:03:56.854Z,14.00
2017-09-08T02:06:22.833Z,14.00
2017-09-08T02:08:48.841Z,14.00
2017-09-08T02:11:14.792Z,14.00
2017-09-08T02:13:40.763Z,14.00
2017-09-08T02:16:06.769Z,14.00
2017-09-08T02:18:32.734Z,14.00
2017-09-08T02:20:58.747Z,14.10
2017-09-08T02:23:25.486Z,14.20
2017-09-08T02:25:52.216Z,14.20
2017-09-08T02:28:18.905Z,14.20
2017-09-08T02:30:51.766Z,14.20
2017-09-08T02:33:17.725Z,14.20
2017-09-08T02:35:43.725Z,14.20
2017-09-08T02:38:10.466Z,14.30
2017-09-08T02:40:36.444Z,14.20
2017-09-08T02:43:03.160Z,14.30
2017-09-08T02:45:29.149Z,14.30
2017-09-08T02:47:55.106Z,14.30
2017-09-08T02:50:21.082Z,14.30
2017-09-08T02:52:47.808Z,14.30
2017-09-08T02:55:13.853Z,14.30
2017-09-08T02:57:39.856Z,14.30
2017-09-08T03:00:06.601Z,14.30
2017-09-08T03:02:32.557Z,14.30
2017-09-08T03:04:58.565Z,14.30
2017-09-08T03:07:24.531Z,14.40
2017-09-08T03:09:50.517Z,14.40
2017-09-08T03:12:16.459Z,14.30
2017-09-08T03:14:42.455Z,14.40
2017-09-08T03:17:08.409Z,14.40
2017-09-08T03:19:34.351Z,14.40
2017-09-08T03:22:00.405Z,14.40
2017-09-08T03:24:26.352Z,14.40
2017-09-08T03:26:53.084Z,14.50
2017-09-08T03:29:19.814Z,14.50
2017-09-08T03:31:45.757Z,14.50
2017-09-08T03:34:11.742Z,14.40
2017-09-08T03:36:37.848Z,14.50
2017-09-08T03:39:03.805Z,14.50
2017-09-08T03:41:29.809Z,14.50
2017-09-08T03:43:55.785Z,14.50
2017-09-08T03:46:21.745Z,14.60
2017-09-08T03:48:47.729Z,14.60
2017-09-08T03:51:13.723Z,14.50
2017-09-08T03:53:39.661Z,14.60
2017-09-08T03:56:05.653Z,14.60
2017-09-08T03:58:31.677Z,14.60
2017-09-08T04:00:57.617Z,14.60
2017-09-08T04:03:24.338Z,14.60
2017-09-08T04:05:51.745Z,14.60
2017-09-08T04:08:17.741Z,14.60
2017-09-08T04:10:43.686Z,14.60
2017-09-08T04:13:09.637Z,14.60
2017-09-08T04:15:35.604Z,14.60
2017-09-08T04:18:01.598Z,14.60
2017-09-08T04:20:27.545Z,14.60
2017-09-08T04:22:54.241Z,14.60
2017-09-08T04:25:20.232Z,14.60
2017-09-08T04:27:46.186Z,14.60
2017-09-08T04:30:12.876Z,14.60
2017-09-08T04:32:38.881Z,14.60
2017-09-08T04:35:04.851Z,14.60
2017-09-08T04:37:31.553Z,14.60
2017-09-08T04:39:57.524Z,14.60
2017-09-08T04:42:23.537Z,14.60
2017-09-08T04:44:49.497Z,14.60
2017-09-08T04:47:16.189Z,14.60
2017-09-08T04:49:42.181Z,14.60
2017-09-08T04:52:08.189Z,14.60
2017-09-08T04:54:34.149Z,14.70
2017-09-08T04:57:00.122Z,14.60
2017-09-08T04:59:26.109Z,14.70
2017-09-08T05:01:52.109Z,14.70
2017-09-08T05:04:18.108Z,14.70
2017-09-08T05:06:44.053Z,14.70
2017-09-08T05:09:09.996Z,14.70
2017-09-08T05:11:35.984Z,14.70
2017-09-08T05:14:01.953Z,14.70
2017-09-08T05:16:27.929Z,14.80
2017-09-08T05:18:53.905Z,14.70
2017-09-08T05:21:20.484Z,14.70
2017-09-08T05:23:46.460Z,14.70
2017-09-08T05:26:16.264Z,14.70
2017-09-08T05:28:42.220Z,14.70
2017-09-08T05:31:08.170Z,14.80
2017-09-08T05:33:34.176Z,14.80
2017-09-08T05:36:00.174Z,14.80
2017-09-08T05:38:26.121Z,14.80
2017-09-08T05:40:52.113Z,14.80
2017-09-08T05:43:18.049Z,14.80
2017-09-08T05:45:43.997Z,14.90
2017-09-08T05:48:10.716Z,14.90
2017-09-08T05:50:36.671Z,14.90
2017-09-08T05:53:03.393Z,14.90
2017-09-08T05:55:30.121Z,14.90
2017-09-08T05:57:56.834Z,14.70
2017-09-08T06:00:23.585Z,14.70
2017-09-08T06:02:49.528Z,14.70
2017-09-08T06:05:15.478Z,14.70
2017-09-08T06:07:42.205Z,14.90
2017-09-08T06:10:08.901Z,15.00
2017-09-08T06:12:34.894Z,14.90
2017-09-08T06:15:00.910Z,15.00
2017-09-08T06:17:26.997Z,15.10
2017-09-08T06:19:52.945Z,15.10
2017-09-08T06:22:18.934Z,15.20
2017-09-08T06:24:45.626Z,15.20
2017-09-08T06:27:11.588Z,15.20
2017-09-08T06:29:37.665Z,15.20
2017-09-08T06:32:03.649Z,15.20
2017-09-08T06:34:29.633Z,15.30
2017-09-08T06:36:56.357Z,15.30
2017-09-08T06:39:23.121Z,15.30
2017-09-08T06:41:49.098Z,15.30
2017-09-08T06:44:15.042Z,15.40
2017-09-08T06:46:41.113Z,15.40
2017-09-08T06:49:07.197Z,15.40
2017-09-08T06:51:33.189Z,15.40
2017-09-08T06:53:59.181Z,15.40
2017-09-08T06:56:25.173Z,15.50
2017-09-08T06:58:51.150Z,15.50
2017-09-08T07:01:17.121Z,15.50
2017-09-08T07:03:43.136Z,15.60
2017-09-08T07:06:09.922Z,15.60
2017-09-08T07:08:35.913Z,15.60
2017-09-08T07:11:01.862Z,15.70
2017-09-08T07:13:27.857Z,15.60
2017-09-08T07:15:53.822Z,15.70
2017-09-08T07:18:19.778Z,15.70
2017-09-08T07:20:45.772Z,15.70
2017-09-08T07:23:11.738Z,15.70
2017-09-08T07:25:37.718Z,15.80
2017-09-08T07:28:03.828Z,15.80
2017-09-08T07:30:29.773Z,15.90
2017-09-08T07:32:55.717Z,15.90
2017-09-08T07:35:21.709Z,16.00
2017-09-08T07:37:48.401Z,16.10
2017-09-08T07:40:14.352Z,16.10
2017-09-08T07:42:41.211Z,16.00
2017-09-08T07:45:07.201Z,16.00
2017-09-08T07:47:33.152Z,16.10
2017-09-08T07:49:59.881Z,16.20
2017-09-08T07:52:25.865Z,16.20
2017-09-08T07:54:51.813Z,16.30
2017-09-08T07:57:17.814Z,16.40
2017-09-08T07:59:43.808Z,16.50
2017-09-08T08:02:09.787Z,16.70
2017-09-08T08:04:35.849Z,16.80
2017-09-08T08:07:01.794Z,16.90
2017-09-08T08:09:27.737Z,17.10
2017-09-08T08:11:53.717Z,17.10
2017-09-08T08:14:19.661Z,17.20
2017-09-08T08:16:45.636Z,17.30
2017-09-08T08:19:11.654Z,17.30
2017-09-08T08:21:37.645Z,17.40
2017-09-08T08:24:03.584Z,17.40
2017-09-08T08:26:29.653Z,17.50
2017-09-08T08:28:56.364Z,17.70
2017-09-08T08:31:23.040Z,17.70
2017-09-08T08:33:49.026Z,17.70
2017-09-08T08:36:14.973Z,17.70
2017-09-08T08:38:40.948Z,17.80
2017-09-08T08:41:06.920Z,17.90
2017-09-08T08:43:33.617Z,18.00
2017-09-08T08:45:59.599Z,18.00
2017-09-08T08:48:25.573Z,18.10
2017-09-08T08:50:51.564Z,18.20
2017-09-08T08:53:17.545Z,18.20
2017-09-08T08:55:43.489Z,18.30
2017-09-08T08:58:10.250Z,18.50
2017-09-08T09:00:36.504Z,18.50
2017-09-08T09:03:02.444Z,18.30
2017-09-08T09:05:28.391Z,18.50
2017-09-08T09:07:54.404Z,18.50
2017-09-08T09:10:20.340Z,18.60
2017-09-08T09:12:46.294Z,18.60
2017-09-08T09:15:12.417Z,18.50
2017-09-08T09:17:38.398Z,18.70
2017-09-08T09:20:05.090Z,18.70
2017-09-08T09:22:31.090Z,18.70
2017-09-08T09:24:57.042Z,18.50
2017-09-08T09:27:22.989Z,18.40
2017-09-08T09:29:49.008Z,18.60
2017-09-08T09:32:14.961Z,18.50
2017-09-08T09:34:41.687Z,18.60
2017-09-08T09:37:07.684Z,18.60
2017-09-08T09:39:33.628Z,18.70
2017-09-08T09:41:59.576Z,18.60
2017-09-08T09:44:25.553Z,18.60
2017-09-08T09:46:51.577Z,18.70
2017-09-08T09:49:17.566Z,18.80
2017-09-08T09:51:43.517Z,18.90
2017-09-08T09:54:09.707Z,19.00
2017-09-08T09:56:35.693Z,18.90
2017-09-08T09:59:01.680Z,19.00
2017-09-08T10:01:27.693Z,18.90
2017-09-08T10:03:53.681Z,18.90
2017-09-08T10:06:20.388Z,19.10
2017-09-08T10:08:46.374Z,19.00
2017-09-08T10:11:12.357Z,19.00
2017-09-08T10:13:38.357Z,19.20
2017-09-08T10:16:04.309Z,19.20
2017-09-08T10:18:30.325Z,19.30
2017-09-08T10:20:56.284Z,19.40
2017-09-08T10:23:22.220Z,19.60
2017-09-08T10:25:48.222Z,19.60
2017-09-08T10:28:14.181Z,19.60
2017-09-08T10:30:40.904Z,19.70
2017-09-08T10:33:07.658Z,19.60
2017-09-08T10:35:33.637Z,19.50
2017-09-08T10:37:59.613Z,19.70
2017-09-08T10:40:26.440Z,19.80
2017-09-08T10:42:52.399Z,19.80
2017-09-08T10:45:19.092Z,19.80
2017-09-08T10:47:45.281Z,19.80
2017-09-08T10:50:11.256Z,19.90
2017-09-08T10:52:37.276Z,20.00
2017-09-08T10:55:03.228Z,20.10
2017-09-08T10:57:29.225Z,20.00
2017-09-08T10:59:55.209Z,20.00
2017-09-08T11:02:21.184Z,20.20
2017-09-08T11:04:47.912Z,20.20
2017-09-08T11:07:13.917Z,20.20
2017-09-08T11:09:40.674Z,20.30
2017-09-08T11:12:06.621Z,20.30
2017-09-08T11:14:32.575Z,20.40
2017-09-08T11:16:58.552Z,20.10
2017-09-08T11:19:24.519Z,20.20
2017-09-08T11:21:50.527Z,20.20
2017-09-08T11:24:16.461Z,20.20
2017-09-08T11:26:42.408Z,20.30
2017-09-08T11:29:08.670Z,20.30
2017-09-08T11:31:34.608Z,20.20
2017-09-08T11:37:06.224Z,20.10
2017-09-08T11:39:35.456Z,20.10
2017-09-08T11:42:01.421Z,20.20
2017-09-08T11:44:27.368Z,20.40
2017-09-08T11:46:54.120Z,20.30
2017-09-08T11:49:20.065Z,20.30
2017-09-08T11:51:46.058Z,20.40
2017-09-08T11:54:12.049Z,20.40
2017-09-08T11:56:38.013Z,20.30
2017-09-08T11:59:04.108Z,20.30
2017-09-08T12:01:30.122Z,20.40
2017-09-08T12:03:56.100Z,20.50
2017-09-08T12:06:22.040Z,20.60
2017-09-08T12:08:48.021Z,20.50
2017-09-08T12:11:14.004Z,20.80
2017-09-08T12:13:39.957Z,20.80
2017-09-08T12:16:06.038Z,20.90
2017-09-08T12:18:31.996Z,21.10
2017-09-08T12:20:57.953Z,21.10
2017-09-08T12:23:23.943Z,21.10
2017-09-08T12:25:49.942Z,21.10
2017-09-08T12:28:16.649Z,21.70
2017-09-08T12:30:43.336Z,21.80
2017-09-08T12:33:09.426Z,21.80
2017-09-08T12:35:35.390Z,21.90
2017-09-08T12:38:02.145Z,22.80
2017-09-08T12:40:28.124Z,22.70
2017-09-08T12:42:54.862Z,22.50
2017-09-08T12:45:20.849Z,22.50
2017-09-08T12:47:46.845Z,22.30
2017-09-08T12:50:12.792Z,22.00
2017-09-08T12:52:39.555Z,21.60
2017-09-08T12:55:05.578Z,21.60
2017-09-08T12:57:31.535Z,21.60
2017-09-08T12:59:58.275Z,21.20
2017-09-08T13:02:24.238Z,21.20
2017-09-08T13:04:50.235Z,21.10
2017-09-08T13:07:16.190Z,21.00
2017-09-08T13:09:42.880Z,20.70
2017-09-08T13:12:08.899Z,20.60
2017-09-08T13:14:34.885Z,20.70
2017-09-08T13:17:00.828Z,20.80
2017-09-08T13:19:27.524Z,20.90
2017-09-08T13:21:54.001Z,20.90
2017-09-08T13:24:19.949Z,20.90
2017-09-08T13:26:45.944Z,21.00
2017-09-08T13:29:11.928Z,21.00
2017-09-08T13:31:37.949Z,20.90
2017-09-08T13:34:03.901Z,20.70
2017-09-08T13:36:29.840Z,20.80
2017-09-08T13:38:55.853Z,20.80
2017-09-08T13:41:21.805Z,20.80
2017-09-08T13:43:47.756Z,20.80
2017-09-08T13:46:14.618Z,20.60
2017-09-08T13:48:40.598Z,20.60
2017-09-08T13:51:06.613Z,20.60
2017-09-08T13:53:32.618Z,20.40
2017-09-08T13:55:58.569Z,20.30
2017-09-08T13:58:24.529Z,20.40
2017-09-08T14:00:50.789Z,20.50
2017-09-08T14:03:16.761Z,20.40
2017-09-08T14:05:42.729Z,20.40
2017-09-08T14:08:08.749Z,20.50
2017-09-08T14:10:34.704Z,20.30
2017-09-08T14:13:00.729Z,20.30
2017-09-08T14:15:26.681Z,20.30
2017-09-08T14:17:53.378Z,20.10
2017-09-08T14:20:19.473Z,20.10
2017-09-08T14:22:45.416Z,20.00
2017-09-08T14:25:11.437Z,20.00
2017-09-08T14:27:38.160Z,20.00
2017-09-08T14:30:04.840Z,19.90
2017-09-08T14:32:30.826Z,19.90
2017-09-08T14:34:56.790Z,19.90
2017-09-08T14:37:22.748Z,20.00
2017-09-08T14:39:48.833Z,20.00
2017-09-08T14:42:14.796Z,20.00
2017-09-08T14:44:40.797Z,20.00
2017-09-08T14:47:06.933Z,19.80
2017-09-08T14:49:32.880Z,19.80
2017-09-08T14:51:58.857Z,19.80
2017-09-08T14:54:24.801Z,19.90
2017-09-08T14:56:51.520Z,19.90
2017-09-08T14:59:17.493Z,19.80
2017-09-08T15:01:43.469Z,19.90
2017-09-08T15:04:09.848Z,19.90
2017-09-08T15:06:35.877Z,19.80
2017-09-08T15:09:01.845Z,19.70
2017-09-08T15:11:27.848Z,19.60
2017-09-08T15:13:53.789Z,19.60
2017-09-08T15:16:19.768Z,19.70
2017-09-08T15:18:45.801Z,19.60
2017-09-08T15:21:11.761Z,19.50
2017-09-08T15:23:37.729Z,19.60
2017-09-08T15:26:03.713Z,19.60
2017-09-08T15:28:29.668Z,19.60
2017-09-08T15:30:55.684Z,19.50
2017-09-08T15:33:21.638Z,19.40
2017-09-08T15:35:47.576Z,19.50
2017-09-08T15:38:14.304Z,19.60
2017-09-08T15:40:41.021Z,19.60
2017-09-08T15:43:07.784Z,19.50
2017-09-08T15:45:33.729Z,19.40
2017-09-08T15:47:59.717Z,19.50
2017-09-08T15:50:25.734Z,19.40
2017-09-08T15:52:51.692Z,19.50
2017-09-08T15:55:17.680Z,19.50
2017-09-08T15:57:43.617Z,19.40
2017-09-08T16:00:09.672Z,19.30
2017-09-08T16:02:35.721Z,19.50
2017-09-08T16:05:02.410Z,19.40
2017-09-08T16:07:28.388Z,19.40
2017-09-08T16:09:54.348Z,19.50
2017-09-08T16:12:20.325Z,19.50
2017-09-08T16:14:46.308Z,19.50
2017-09-08T16:17:12.297Z,19.40
2017-09-08T16:19:39.072Z,19.40
2017-09-08T16:22:05.141Z,19.40
2017-09-08T16:24:31.100Z,19.50
2017-09-08T16:26:57.110Z,19.50
2017-09-08T16:29:23.075Z,19.60
2017-09-08T16:31:49.030Z,19.30
2017-09-08T16:34:15.021Z,19.50
2017-09-08T16:36:40.978Z,19.50
2017-09-08T16:39:07.729Z,19.40
2017-09-08T16:41:33.708Z,19.40
2017-09-08T16:44:00.388Z,19.40
2017-09-08T16:46:26.411Z,19.40
2017-09-08T16:48:52.405Z,19.40
2017-09-08T16:51:18.392Z,19.30
2017-09-08T16:53:44.805Z,19.30
2017-09-08T16:56:10.881Z,19.40
2017-09-08T16:58:36.898Z,19.50
2017-09-08T17:01:03.629Z,19.30
2017-09-08T17:03:29.598Z,19.30
2017-09-08T17:05:55.594Z,19.20
2017-09-08T17:08:21.613Z,19.30
2017-09-08T17:10:47.637Z,19.20
2017-09-08T17:13:13.627Z,19.30
2017-09-08T17:15:39.633Z,19.30
2017-09-08T17:18:05.644Z,19.40
2017-09-08T17:20:31.593Z,19.30
2017-09-08T17:22:58.369Z,19.20
2017-09-08T17:25:24.347Z,19.20
2017-09-08T17:27:50.314Z,19.10
2017-09-08T17:30:16.308Z,19.10
2017-09-08T17:32:42.276Z,19.20
2017-09-08T17:35:08.321Z,19.20
2017-09-08T17:37:34.383Z,19.10
2017-09-08T17:40:01.112Z,19.00
2017-09-08T17:42:27.846Z,19.00
2017-09-08T17:44:53.875Z,18.90
2017-09-08T17:47:19.877Z,19.00
2017-09-08T17:49:45.836Z,19.00
2017-09-08T17:52:11.827Z,18.90
2017-09-08T17:54:37.881Z,19.00
2017-09-08T17:57:03.846Z,19.10
2017-09-08T17:59:29.848Z,18.90
2017-09-08T18:01:55.860Z,18.80
2017-09-08T18:04:21.815Z,18.90
2017-09-08T18:06:48.549Z,18.80
2017-09-08T18:09:14.506Z,18.80
2017-09-08T18:11:40.549Z,18.80
2017-09-08T18:14:07.414Z,18.60
2017-09-08T18:16:33.365Z,18.60
2017-09-08T18:18:59.352Z,18.50
2017-09-08T18:21:25.314Z,18.40
2017-09-08T18:23:51.366Z,18.30
2017-09-08T18:26:17.312Z,18.30
2017-09-08T18:28:45.097Z,18.20
2017-09-08T18:31:11.168Z,18.20
2017-09-08T18:33:37.205Z,18.10
2017-09-08T18:36:03.185Z,18.10
2017-09-08T18:38:29.185Z,18.10
2017-09-08T18:40:55.196Z,18.10
2017-09-08T18:43:21.162Z,18.10
2017-09-08T18:45:47.158Z,18.10
2017-09-08T18:48:13.117Z,18.00
2017-09-08T18:50:39.201Z,17.90
2017-09-08T18:53:05.209Z,17.80
2017-09-08T18:55:31.205Z,17.80
2017-09-08T18:57:57.213Z,17.80
2017-09-08T19:00:23.174Z,17.70
2017-09-08T19:02:49.202Z,17.70
2017-09-08T19:05:15.242Z,17.60
2017-09-08T19:07:41.297Z,17.70
2017-09-08T19:10:07.420Z,17.60
2017-09-08T19:12:34.189Z,17.70
2017-09-08T19:15:00.189Z,17.60
2017-09-08T19:17:26.141Z,17.60
2017-09-08T19:19:52.148Z,17.60
2017-09-08T19:22:18.165Z,17.50
2017-09-08T19:24:44.144Z,17.50
2017-09-08T19:27:10.191Z,17.50
2017-09-08T19:29:36.275Z,17.50
2017-09-08T19:32:02.238Z,17.50
2017-09-08T19:34:28.238Z,17.50
2017-09-08T19:36:54.938Z,17.40
2017-09-08T19:39:20.941Z,17.30
2017-09-08T19:41:46.944Z,17.40
2017-09-08T19:44:12.950Z,17.30
2017-09-08T19:46:38.962Z,17.30
2017-09-08T19:49:04.957Z,17.40
2017-09-08T19:51:30.961Z,17.40
2017-09-08T19:53:58.018Z,17.30
2017-09-08T19:56:23.973Z,17.30
2017-09-08T19:58:49.956Z,17.30
2017-09-08T20:01:15.900Z,17.30
2017-09-08T20:03:41.953Z,17.30
2017-09-08T20:06:08.037Z,17.30
2017-09-08T20:08:33.987Z,17.40
2017-09-08T20:10:59.998Z,17.30
2017-09-08T20:13:26.008Z,17.30
2017-09-08T20:15:51.977Z,17.20
2017-09-08T20:18:17.972Z,17.20
2017-09-08T20:20:43.934Z,17.20
2017-09-08T20:23:09.989Z,17.20
2017-09-08T20:25:36.058Z,17.20
2017-09-08T20:28:02.049Z,17.10
2017-09-08T20:30:28.017Z,17.10
2017-09-08T20:32:54.029Z,17.10
2017-09-08T20:35:19.972Z,17.10
2017-09-08T20:37:45.973Z,17.10
2017-09-08T20:40:12.037Z,17.00
2017-09-08T20:42:38.167Z,16.90
2017-09-08T20:45:04.160Z,16.90
2017-09-08T20:47:30.220Z,16.90
2017-09-08T20:49:56.185Z,16.90
2017-09-08T20:52:22.182Z,16.90
2017-09-08T20:54:48.168Z,16.80
2017-09-08T20:57:14.936Z,16.80
2017-09-08T20:59:40.955Z,16.80
2017-09-08T21:02:06.967Z,16.80
2017-09-08T21:04:32.981Z,16.70
2017-09-08T21:06:58.957Z,16.70
2017-09-08T21:09:24.933Z,16.70
2017-09-08T21:11:51.037Z,16.70
2017-09-08T21:14:17.048Z,16.70
2017-09-08T21:16:43.041Z,16.70
2017-09-08T21:19:09.021Z,16.60
2017-09-08T21:21:35.046Z,16.60
2017-09-08T21:24:00.988Z,16.60
2017-09-08T21:26:26.961Z,16.60
2017-09-08T21:28:52.972Z,16.60
2017-09-08T21:31:18.930Z,16.60
2017-09-08T21:33:45.664Z,16.50
2017-09-08T21:36:12.372Z,16.40
2017-09-08T21:38:38.382Z,16.50
2017-09-08T21:41:04.361Z,16.40
2017-09-08T21:43:30.313Z,16.40
2017-09-08T21:45:57.218Z,16.40
2017-09-08T21:48:23.178Z,16.30
2017-09-08T21:50:49.145Z,16.40
2017-09-08T21:53:15.150Z,16.30
2017-09-08T21:55:41.296Z,16.30
2017-09-08T21:58:07.369Z,16.20
2017-09-08T22:00:33.393Z,16.30
2017-09-08T22:03:00.162Z,16.20
2017-09-08T22:05:26.186Z,16.20
2017-09-08T22:07:52.157Z,16.20
2017-09-08T22:10:18.860Z,16.20
2017-09-08T22:12:44.861Z,16.20
2017-09-08T22:15:10.847Z,16.20
2017-09-08T22:17:36.855Z,16.20
2017-09-08T22:20:02.854Z,16.20
2017-09-08T22:22:28.821Z,16.10
2017-09-08T22:24:55.572Z,16.10
2017-09-08T22:27:21.516Z,16.10
2017-09-08T22:29:47.474Z,16.10
2017-09-08T22:32:13.472Z,16.10
2017-09-08T22:34:40.197Z,16.00
2017-09-08T22:37:06.937Z,16.00
2017-09-08T22:39:32.924Z,16.00
2017-09-08T22:41:59.617Z,15.90
2017-09-08T22:44:25.629Z,15.90
2017-09-08T22:46:51.628Z,15.90
2017-09-08T22:49:17.577Z,15.90
2017-09-08T22:51:44.269Z,15.80
2017-09-08T22:54:10.270Z,15.80
2017-09-08T22:56:36.255Z,15.80
2017-09-08T22:59:02.240Z,15.80
2017-09-08T23:01:28.196Z,15.80
2017-09-08T23:03:54.209Z,15.80
2017-09-08T23:06:20.167Z,15.80
2017-09-08T23:08:46.121Z,15.70
2017-09-08T23:11:12.130Z,15.70
2017-09-08T23:13:38.125Z,15.70
2017-09-08T23:16:04.112Z,15.70
2017-09-08T23:18:30.148Z,15.70
2017-09-08T23:20:56.133Z,15.70
2017-09-08T23:23:22.093Z,15.70
2017-09-08T23:25:48.072Z,15.80
2017-09-08T23:28:14.012Z,15.70
2017-09-08T23:30:40.012Z,15.70
2017-09-08T23:33:05.997Z,15.70
2017-09-08T23:35:31.993Z,15.70
2017-09-08T23:37:57.973Z,15.60
2017-09-08T23:40:24.729Z,15.70
2017-09-08T23:42:50.717Z,15.60
2017-09-08T23:45:16.665Z,15.70
2017-09-08T23:47:42.630Z,15.70
2017-09-08T23:50:08.653Z,15.70
2017-09-08T23:52:34.600Z,15.70
2017-09-08T23:55:00.601Z,15.60
2017-09-08T23:57:26.588Z,15.60
2017-09-08T23:59:52.550Z,15.60
